createdAt,value
2019-04-30T00:02:16.218Z,94409.39
2019-04-30T00:04:42.222Z,94402.85
2019-04-30T00:07:10.199Z,94407.64
2019-04-30T00:09:35.138Z,94404.56
2019-04-30T00:12:01.418Z,94397.09
2019-04-30T00:14:32.023Z,94399.77
2019-04-30T00:16:52.294Z,94394.43
2019-04-30T00:19:19.776Z,94396.27
2019-04-30T00:21:50.079Z,94391.76
2019-04-30T00:24:10.464Z,94382.42
2019-04-30T00:26:39.857Z,94381.18
2019-04-30T00:29:02.318Z,94371.42
2019-04-30T00:31:28.341Z,94366.91
2019-04-30T00:33:57.875Z,94358.91
2019-04-30T00:36:20.353Z,94362.49
2019-04-30T00:38:46.371Z,94360.75
2019-04-30T00:41:12.366Z,94367.05
2019-04-30T00:43:46.593Z,94358.20
2019-04-30T00:46:05.032Z,94349.79
2019-04-30T00:48:31.286Z,94353.69
2019-04-30T00:50:56.426Z,94367.05
2019-04-30T00:53:22.424Z,94359.13
2019-04-30T00:55:48.622Z,94346.20
2019-04-30T00:58:19.714Z,94358.20
2019-04-30T01:00:40.460Z,94365.94
2019-04-30T01:03:09.357Z,94359.13
2019-04-30T01:05:32.471Z,94364.88
2019-04-30T01:07:58.491Z,94362.31
2019-04-30T01:10:28.234Z,94367.65
2019-04-30T01:12:50.504Z,94369.39
2019-04-30T01:15:16.494Z,94371.66
2019-04-30T01:17:45.280Z,94372.98
2019-04-30T01:20:09.413Z,94367.65
2019-04-30T01:22:34.539Z,94364.98
2019-04-30T01:25:07.691Z,94355.77
2019-04-30T01:27:28.332Z,94354.44
2019-04-30T01:29:52.575Z,94360.19
2019-04-30T01:32:20.976Z,94365.52
2019-04-30T01:34:49.990Z,94362.85
2019-04-30T01:37:11.856Z,94364.70
2019-04-30T01:39:36.684Z,94367.37
2019-04-30T01:42:02.895Z,94357.10
2019-04-30T01:44:29.513Z,94357.61
2019-04-30T01:46:54.713Z,94359.36
2019-04-30T01:49:25.735Z,94355.87
2019-04-30T01:51:48.556Z,94362.54
2019-04-30T01:54:13.687Z,94357.61
2019-04-30T01:56:38.993Z,94349.61
2019-04-30T01:59:04.774Z,94349.61
2019-04-30T02:01:31.113Z,94342.01
2019-04-30T02:03:58.503Z,94344.27
2019-04-30T02:06:22.834Z,94335.84
2019-04-30T02:08:49.384Z,94334.13
2019-04-30T02:11:14.849Z,94336.39
2019-04-30T02:13:40.846Z,94330.13
2019-04-30T02:16:08.530Z,94330.13
2019-04-30T02:18:32.889Z,94323.84
2019-04-30T02:20:59.447Z,94316.78
2019-04-30T02:23:24.896Z,94330.13
2019-04-30T02:25:50.903Z,94334.64
2019-04-30T02:28:18.489Z,94334.64
2019-04-30T02:30:42.920Z,94331.97
2019-04-30T02:33:09.609Z,94331.46
2019-04-30T02:35:34.949Z,94334.64
2019-04-30T02:38:00.943Z,94337.19
2019-04-30T02:40:30.004Z,94336.39
2019-04-30T02:42:52.950Z,94335.47
2019-04-30T02:45:19.808Z,94326.23
2019-04-30T02:47:44.965Z,94330.64
2019-04-30T02:50:17.721Z,94328.48
2019-04-30T02:52:36.977Z,94326.64
2019-04-30T02:55:02.977Z,94324.89
2019-04-30T02:57:29.956Z,94319.55
2019-04-30T02:59:55.062Z,94329.81
2019-04-30T03:02:21.107Z,94328.38
2019-04-30T03:04:47.128Z,94324.48
2019-04-30T03:07:13.150Z,94322.22
2019-04-30T03:09:39.410Z,94325.81
2019-04-30T03:12:05.172Z,94323.55
2019-04-30T03:14:31.212Z,94325.81
2019-04-30T03:16:59.886Z,94320.89
2019-04-30T03:19:23.224Z,94319.97
2019-04-30T03:21:50.300Z,94318.34
2019-04-30T03:24:15.296Z,94314.72
2019-04-30T03:26:41.314Z,94322.73
2019-04-30T03:29:10.721Z,94331.16
2019-04-30T03:31:33.330Z,94329.81
2019-04-30T03:34:01.999Z,94328.07
2019-04-30T03:36:25.371Z,94328.07
2019-04-30T03:38:51.389Z,94338.75
2019-04-30T03:41:19.850Z,94329.02
2019-04-30T03:43:43.412Z,94326.73
2019-04-30T03:46:10.125Z,94321.40
2019-04-30T03:48:35.467Z,94338.64
2019-04-30T03:51:01.445Z,94333.72
2019-04-30T03:53:29.697Z,94328.38
2019-04-30T03:55:53.466Z,94331.84
2019-04-30T03:58:21.276Z,94334.92
2019-04-30T04:00:46.710Z,94329.59
2019-04-30T04:03:11.532Z,94329.59
2019-04-30T04:05:39.737Z,94339.75
2019-04-30T04:08:03.593Z,94338.93
2019-04-30T04:10:29.824Z,94334.92
2019-04-30T04:12:55.651Z,94336.67
2019-04-30T04:15:21.648Z,94338.00
2019-04-30T04:17:50.252Z,94338.00
2019-04-30T04:20:13.669Z,94337.59
2019-04-30T04:22:40.315Z,94334.41
2019-04-30T04:25:05.766Z,94329.59
2019-04-30T04:27:31.780Z,94328.66
2019-04-30T04:30:00.740Z,94330.00
2019-04-30T04:32:24.255Z,94330.41
2019-04-30T04:34:50.669Z,94323.23
2019-04-30T04:37:15.808Z,94330.41
2019-04-30T04:39:42.079Z,94324.02
2019-04-30T04:42:10.068Z,94336.44
2019-04-30T04:44:33.852Z,94330.18
2019-04-30T04:47:00.247Z,94329.77
2019-04-30T04:49:25.926Z,94331.80
2019-04-30T04:51:51.917Z,94334.47
2019-04-30T04:54:19.947Z,94331.16
2019-04-30T04:56:43.951Z,94336.49
2019-04-30T04:59:10.412Z,94330.78
2019-04-30T05:01:36.124Z,94329.72
2019-04-30T05:04:02.218Z,94336.91
2019-04-30T05:06:29.807Z,94334.65
2019-04-30T05:08:54.258Z,94320.38
2019-04-30T05:11:20.282Z,94319.05
2019-04-30T05:13:46.274Z,94318.91
2019-04-30T05:16:12.290Z,94318.13
2019-04-30T05:18:39.106Z,94323.33
2019-04-30T05:21:04.291Z,94320.56
2019-04-30T05:23:30.306Z,94320.97
2019-04-30T05:25:56.319Z,94326.41
2019-04-30T05:28:22.328Z,94325.08
2019-04-30T05:30:49.390Z,94321.89
2019-04-30T05:33:15.523Z,94323.64
2019-04-30T05:35:41.536Z,94318.17
2019-04-30T05:38:09.184Z,94318.59
2019-04-30T05:40:33.575Z,94315.91
2019-04-30T05:43:00.430Z,94315.91
2019-04-30T05:45:25.706Z,94319.09
2019-04-30T05:47:51.726Z,94314.58
2019-04-30T05:50:19.777Z,94315.50
2019-04-30T05:52:43.866Z,94314.16
2019-04-30T05:55:09.861Z,94314.16
2019-04-30T05:57:35.878Z,94310.45
2019-04-30T06:00:01.900Z,94309.66
2019-04-30T06:02:30.729Z,94316.61
2019-04-30T06:04:53.935Z,94317.66
2019-04-30T06:07:19.935Z,94311.50
2019-04-30T06:09:45.935Z,94318.86
2019-04-30T06:12:11.964Z,94313.52
2019-04-30T06:14:48.331Z,94324.62
2019-04-30T06:17:04.122Z,94320.20
2019-04-30T06:19:30.233Z,94325.95
2019-04-30T06:22:05.851Z,94324.62
2019-04-30T06:24:22.270Z,94326.27
2019-04-30T06:26:49.399Z,94312.60
2019-04-30T06:29:14.306Z,94316.51
2019-04-30T06:31:43.087Z,94313.11
2019-04-30T06:34:08.535Z,94314.25
2019-04-30T06:36:32.838Z,94313.94
2019-04-30T06:38:59.016Z,94315.27
2019-04-30T06:41:24.888Z,94307.58
2019-04-30T06:43:50.904Z,94307.63
2019-04-30T06:46:18.556Z,94310.11
2019-04-30T06:48:45.563Z,94303.85
2019-04-30T06:51:09.140Z,94300.36
2019-04-30T06:53:34.968Z,94300.77
2019-04-30T06:56:01.121Z,94301.18
2019-04-30T06:58:28.990Z,94301.46
2019-04-30T07:00:53.285Z,94299.62
2019-04-30T07:03:19.356Z,94299.48
2019-04-30T07:05:45.378Z,94300.82
2019-04-30T07:08:12.086Z,94300.20
2019-04-30T07:10:37.427Z,94307.11
2019-04-30T07:13:03.489Z,94305.93
2019-04-30T07:15:29.712Z,94310.06
2019-04-30T07:17:55.491Z,94306.98
2019-04-30T07:20:21.514Z,94299.25
2019-04-30T07:22:52.467Z,94298.64
2019-04-30T07:25:13.546Z,94294.73
2019-04-30T07:27:40.164Z,94303.57
2019-04-30T07:30:05.628Z,94302.23
2019-04-30T07:32:31.638Z,94308.68
2019-04-30T07:34:59.303Z,94309.09
2019-04-30T07:37:24.745Z,94306.80
2019-04-30T07:39:49.656Z,94316.88
2019-04-30T07:42:15.673Z,94328.06
2019-04-30T07:44:41.678Z,94306.98
2019-04-30T07:47:09.487Z,94316.33
2019-04-30T07:49:47.089Z,94313.42
2019-04-30T07:52:01.463Z,94306.06
2019-04-30T07:54:25.741Z,94306.06
2019-04-30T07:56:51.765Z,94307.11
2019-04-30T07:59:19.989Z,94309.78
2019-04-30T08:02:00.226Z,94318.48
2019-04-30T08:04:09.810Z,94319.41
2019-04-30T08:06:35.894Z,94331.55
2019-04-30T08:09:02.140Z,94336.35
2019-04-30T08:11:29.290Z,94332.25
2019-04-30T08:13:53.871Z,94334.09
2019-04-30T08:16:19.880Z,94335.43
2019-04-30T08:18:45.918Z,94331.84
2019-04-30T08:21:11.949Z,94327.31
2019-04-30T08:23:39.706Z,94327.19
2019-04-30T08:26:04.006Z,94325.86
2019-04-30T08:28:30.377Z,94317.56
2019-04-30T08:30:56.095Z,94322.36
2019-04-30T08:33:22.130Z,94329.22
2019-04-30T08:35:49.990Z,94323.88
2019-04-30T08:38:14.149Z,94327.65
2019-04-30T08:40:53.137Z,94332.58
2019-04-30T08:43:06.172Z,94325.63
2019-04-30T08:45:34.735Z,94306.23
2019-04-30T08:47:59.050Z,94311.68
2019-04-30T08:50:24.350Z,94314.12
2019-04-30T08:52:50.817Z,94308.27
2019-04-30T08:55:17.089Z,94308.17
2019-04-30T08:57:42.458Z,94305.36
2019-04-30T09:00:09.517Z,94298.82
2019-04-30T09:02:34.827Z,94294.81
2019-04-30T09:05:00.880Z,94296.53
2019-04-30T09:07:26.981Z,94293.48
2019-04-30T09:09:53.096Z,94284.52
2019-04-30T09:12:19.637Z,94299.52
2019-04-30T09:14:45.244Z,94317.28
2019-04-30T09:17:11.264Z,94329.40
2019-04-30T09:19:38.663Z,94344.36
2019-04-30T09:22:12.374Z,94340.90
2019-04-30T09:24:31.039Z,94367.61
2019-04-30T09:27:04.123Z,94376.03
2019-04-30T09:29:30.134Z,94378.56
2019-04-30T09:31:59.456Z,94374.56
2019-04-30T09:34:25.700Z,94370.27
2019-04-30T09:36:51.798Z,94343.63
2019-04-30T09:39:19.517Z,94352.33
2019-04-30T09:41:43.814Z,94351.91
2019-04-30T09:44:10.082Z,94357.80
2019-04-30T09:46:35.961Z,94358.72
2019-04-30T09:49:02.087Z,94363.88
2019-04-30T09:51:30.580Z,94357.72
2019-04-30T09:53:58.667Z,94357.84
2019-04-30T09:56:26.861Z,94363.19
2019-04-30T09:58:52.904Z,94353.70
2019-04-30T10:01:18.933Z,94352.92
2019-04-30T10:03:45.347Z,94355.59
2019-04-30T10:06:10.968Z,94365.73
2019-04-30T10:08:47.812Z,94364.39
2019-04-30T10:11:03.071Z,94363.88
2019-04-30T10:13:29.080Z,94367.88
2019-04-30T10:15:55.090Z,94371.06
2019-04-30T10:18:21.256Z,94367.38
2019-04-30T10:20:47.314Z,94359.36
2019-04-30T10:23:13.399Z,94363.88
2019-04-30T10:25:39.441Z,94355.22
2019-04-30T10:28:05.445Z,94363.78
2019-04-30T10:30:31.460Z,94369.22
2019-04-30T10:32:59.487Z,94382.29
2019-04-30T10:35:23.859Z,94400.58
2019-04-30T10:37:49.887Z,94417.42
2019-04-30T10:40:15.883Z,94419.95
2019-04-30T10:42:41.876Z,94410.20
2019-04-30T10:45:09.742Z,94407.53
2019-04-30T10:47:33.893Z,94416.88
2019-04-30T10:49:59.938Z,94404.06
2019-04-30T10:52:25.946Z,94387.09
2019-04-30T10:54:51.961Z,94384.04
2019-04-30T10:57:18.419Z,94375.89
2019-04-30T10:59:43.983Z,94364.30
2019-04-30T11:02:10.004Z,94362.55
2019-04-30T11:04:35.998Z,94360.28
2019-04-30T11:07:02.066Z,94359.78
2019-04-30T11:09:29.302Z,94354.72
2019-04-30T11:11:54.110Z,94355.22
2019-04-30T11:14:20.130Z,94347.63
2019-04-30T11:16:46.205Z,94342.70
2019-04-30T11:19:12.270Z,94334.28
2019-04-30T11:21:38.274Z,94332.84
2019-04-30T11:24:04.317Z,94327.59
2019-04-30T11:26:31.963Z,94321.84
2019-04-30T11:28:56.386Z,94311.98
2019-04-30T11:31:22.374Z,94306.65
2019-04-30T11:33:48.413Z,94306.14
2019-04-30T11:36:14.270Z,94301.30
2019-04-30T11:38:40.264Z,94295.05
2019-04-30T11:41:06.268Z,94294.91
2019-04-30T11:43:32.287Z,94315.86
2019-04-30T11:45:58.668Z,94307.16
2019-04-30T11:48:24.358Z,94307.34
2019-04-30T11:50:50.397Z,94294.91
2019-04-30T11:53:25.403Z,94292.24
2019-04-30T11:55:42.407Z,94296.79
2019-04-30T11:58:21.065Z,94293.70
2019-04-30T12:00:34.788Z,94287.45
2019-04-30T12:03:00.787Z,94280.36
2019-04-30T12:05:28.892Z,94276.77
2019-04-30T12:07:52.837Z,94279.44
2019-04-30T12:10:19.441Z,94267.92
2019-04-30T12:12:44.872Z,94254.16
2019-04-30T12:15:10.945Z,94263.79
2019-04-30T12:17:36.943Z,94258.07
2019-04-30T12:20:03.021Z,94254.98
2019-04-30T12:22:29.612Z,94246.84
2019-04-30T12:25:02.508Z,94238.31
2019-04-30T12:27:21.142Z,94241.81
2019-04-30T12:29:47.162Z,94242.73
2019-04-30T12:32:13.146Z,94233.80
2019-04-30T12:34:39.178Z,94242.61
2019-04-30T12:37:05.202Z,94219.39
2019-04-30T12:39:31.198Z,94215.28
2019-04-30T12:41:58.870Z,94210.22
2019-04-30T12:44:23.214Z,94208.75
2019-04-30T12:46:49.229Z,94186.19
2019-04-30T12:49:15.226Z,94195.95
2019-04-30T12:51:45.984Z,94194.06
2019-04-30T12:54:07.337Z,94187.52
2019-04-30T12:56:33.358Z,94189.03
2019-04-30T12:58:59.369Z,94174.45
2019-04-30T13:01:25.375Z,94165.41
2019-04-30T13:03:58.369Z,94167.54
2019-04-30T13:06:17.843Z,94167.03
2019-04-30T13:08:43.948Z,94147.09
2019-04-30T13:11:12.281Z,94157.78
2019-04-30T13:13:36.104Z,94157.67
2019-04-30T13:16:01.640Z,94163.02
2019-04-30T13:18:29.485Z,94155.83
2019-04-30T13:20:53.728Z,94161.45
2019-04-30T13:23:19.703Z,94155.18
2019-04-30T13:25:51.226Z,94145.30
2019-04-30T13:28:11.731Z,94139.02
2019-04-30T13:30:39.489Z,94142.75
2019-04-30T13:33:03.759Z,94148.61
2019-04-30T13:35:29.784Z,94149.43
2019-04-30T13:37:55.875Z,94139.16
2019-04-30T13:40:21.888Z,94143.16
2019-04-30T13:42:48.781Z,94134.74
2019-04-30T13:45:13.988Z,94136.18
2019-04-30T13:47:39.987Z,94137.14
2019-04-30T13:50:06.034Z,94146.48
2019-04-30T13:52:32.032Z,94131.38
2019-04-30T13:54:58.166Z,94136.59
2019-04-30T13:57:24.187Z,94132.30
2019-04-30T13:59:51.090Z,94133.64
2019-04-30T14:02:16.208Z,94131.48
2019-04-30T14:04:42.203Z,94135.49
2019-04-30T14:07:08.283Z,94133.23
2019-04-30T14:09:34.274Z,94138.70
2019-04-30T14:12:00.289Z,94126.28
2019-04-30T14:14:26.332Z,94140.97
2019-04-30T14:16:52.312Z,94139.73
2019-04-30T14:19:19.531Z,94140.66
2019-04-30T14:21:44.676Z,94138.40
2019-04-30T14:24:10.875Z,94150.14
2019-04-30T14:26:36.898Z,94141.30
2019-04-30T14:29:03.345Z,94152.80
2019-04-30T14:31:29.332Z,94151.20
2019-04-30T14:33:55.378Z,94152.22
2019-04-30T14:36:21.426Z,94161.98
2019-04-30T14:38:48.889Z,94155.44
2019-04-30T14:41:13.996Z,94186.02
2019-04-30T14:43:42.439Z,94175.84
2019-04-30T14:46:05.670Z,94173.82
2019-04-30T14:48:32.110Z,94174.47
2019-04-30T14:50:57.575Z,94173.13
2019-04-30T14:53:23.574Z,94176.86
2019-04-30T14:55:49.630Z,94171.11
2019-04-30T14:58:15.664Z,94173.47
2019-04-30T15:00:41.663Z,94172.55
2019-04-30T15:03:09.360Z,94168.13
2019-04-30T15:05:40.558Z,94166.10
2019-04-30T15:08:00.933Z,94179.04
2019-04-30T15:10:25.767Z,94191.60
2019-04-30T15:12:51.762Z,94194.55
2019-04-30T15:15:19.180Z,94195.47
2019-04-30T15:17:43.790Z,94192.02
2019-04-30T15:20:09.795Z,94198.69
2019-04-30T15:22:35.821Z,94200.95
2019-04-30T15:25:01.817Z,94202.80
2019-04-30T15:27:28.965Z,94203.85
2019-04-30T15:29:57.078Z,94214.13
2019-04-30T15:32:19.926Z,94206.86
2019-04-30T15:34:45.953Z,94204.09
2019-04-30T15:37:19.233Z,94210.53
2019-04-30T15:39:39.365Z,94209.88
2019-04-30T15:42:04.055Z,94215.67
2019-04-30T15:44:30.059Z,94213.14
2019-04-30T15:46:56.080Z,94215.40
2019-04-30T15:49:22.077Z,94213.66
2019-04-30T15:51:48.105Z,94211.80
2019-04-30T15:54:14.120Z,94211.80
2019-04-30T15:56:42.346Z,94212.59
2019-04-30T15:59:06.233Z,94212.77
2019-04-30T16:01:32.290Z,94210.97
2019-04-30T16:03:58.345Z,94209.64
2019-04-30T16:06:24.351Z,94210.56
2019-04-30T16:08:50.435Z,94202.27
2019-04-30T16:11:16.431Z,94207.84
2019-04-30T16:13:42.448Z,94208.48
2019-04-30T16:16:09.141Z,94206.23
2019-04-30T16:18:34.484Z,94211.16
2019-04-30T16:21:00.508Z,94209.28
2019-04-30T16:23:26.544Z,94212.19
2019-04-30T16:25:52.587Z,94213.93
2019-04-30T16:28:19.572Z,94222.48
2019-04-30T16:30:44.638Z,94237.55
2019-04-30T16:33:10.676Z,94241.55
2019-04-30T16:35:36.702Z,94250.52
2019-04-30T16:38:02.708Z,94246.11
2019-04-30T16:40:29.104Z,94243.44
2019-04-30T16:42:54.761Z,94251.03
2019-04-30T16:45:20.804Z,94254.12
2019-04-30T16:47:46.814Z,94253.20
2019-04-30T16:50:12.846Z,94256.55
2019-04-30T16:52:39.336Z,94261.59
2019-04-30T16:55:07.404Z,94268.80
2019-04-30T16:57:33.499Z,94269.22
2019-04-30T16:59:59.512Z,94263.88
2019-04-30T17:02:25.526Z,94265.59
2019-04-30T17:04:51.720Z,94271.34
2019-04-30T17:07:18.777Z,94269.08
2019-04-30T17:09:43.741Z,94273.91
2019-04-30T17:12:10.223Z,94273.50
2019-04-30T17:14:36.387Z,94270.55
2019-04-30T17:17:02.379Z,94274.94
2019-04-30T17:19:29.211Z,94274.25
2019-04-30T17:21:54.423Z,94281.23
2019-04-30T17:24:20.452Z,94294.97
2019-04-30T17:26:46.463Z,94304.20
2019-04-30T17:29:12.490Z,94310.61
2019-04-30T17:31:38.516Z,94310.88
2019-04-30T17:34:04.504Z,94312.09
2019-04-30T17:36:30.599Z,94309.14
2019-04-30T17:38:56.597Z,94313.42
2019-04-30T17:41:22.642Z,94318.77
2019-04-30T17:43:49.571Z,94332.11
2019-04-30T17:46:14.685Z,94338.92
2019-04-30T17:48:40.716Z,94339.80
2019-04-30T17:51:06.730Z,94345.78
2019-04-30T17:53:32.734Z,94351.63
2019-04-30T17:55:58.757Z,94354.07
2019-04-30T17:58:24.772Z,94356.74
2019-04-30T18:00:50.809Z,94358.08
2019-04-30T18:03:18.886Z,94352.09
2019-04-30T18:05:42.896Z,94372.36
2019-04-30T18:08:09.554Z,94374.00
2019-04-30T18:10:35.554Z,94397.49
2019-04-30T18:13:01.572Z,94401.91
2019-04-30T18:15:27.618Z,94423.27
2019-04-30T18:17:53.651Z,94414.34
2019-04-30T18:20:19.646Z,94423.27
2019-04-30T18:22:45.669Z,94426.36
2019-04-30T18:25:11.696Z,94427.23
2019-04-30T18:27:46.011Z,94445.05
2019-04-30T18:30:03.784Z,94434.27
2019-04-30T18:32:29.793Z,94439.07
2019-04-30T18:34:55.822Z,94435.70
2019-04-30T18:37:21.833Z,94441.17
2019-04-30T18:39:47.892Z,94448.36
2019-04-30T18:42:13.885Z,94445.80
2019-04-30T18:44:39.915Z,94458.73
2019-04-30T18:47:05.904Z,94459.97
2019-04-30T18:49:31.907Z,94458.86
2019-04-30T18:51:59.015Z,94465.95
2019-04-30T18:54:23.996Z,94464.62
2019-04-30T18:56:50.017Z,94467.57
2019-04-30T18:59:16.047Z,94468.08
2019-04-30T19:01:42.049Z,94468.49
2019-04-30T19:04:09.207Z,94463.69
2019-04-30T19:06:34.801Z,94456.06
2019-04-30T19:09:00.794Z,94457.81
2019-04-30T19:11:28.808Z,94452.19
2019-04-30T19:13:52.854Z,94457.94
2019-04-30T19:16:24.694Z,94460.61
2019-04-30T19:18:44.944Z,94466.87
2019-04-30T19:21:10.963Z,94480.23
2019-04-30T19:23:38.894Z,94476.22
2019-04-30T19:26:02.980Z,94481.05
2019-04-30T19:28:29.084Z,94487.83
2019-04-30T19:30:58.310Z,94496.25
2019-04-30T19:33:21.145Z,94495.84
2019-04-30T19:35:50.393Z,94495.42
2019-04-30T19:38:13.176Z,94502.52
2019-04-30T19:40:39.257Z,94503.44
2019-04-30T19:43:05.206Z,94502.64
2019-04-30T19:45:31.208Z,94499.97
2019-04-30T19:47:58.673Z,94502.10
2019-04-30T19:50:23.223Z,94503.98
2019-04-30T19:52:49.222Z,94513.20
2019-04-30T19:55:15.237Z,94512.91
2019-04-30T19:57:41.238Z,94499.02
2019-04-30T20:00:09.227Z,94500.89
2019-04-30T20:02:33.272Z,94503.56
2019-04-30T20:05:01.169Z,94509.32
2019-04-30T20:07:25.312Z,94498.22
2019-04-30T20:10:00.198Z,94515.04
2019-04-30T20:12:18.807Z,94513.42
2019-04-30T20:14:43.339Z,94510.75
2019-04-30T20:17:09.352Z,94517.84
2019-04-30T20:19:35.367Z,94515.68
2019-04-30T20:22:10.795Z,94520.92
2019-04-30T20:24:39.331Z,94513.42
2019-04-30T20:27:07.181Z,94504.59
2019-04-30T20:29:29.531Z,94501.53
2019-04-30T20:31:56.140Z,94500.71
2019-04-30T20:34:22.131Z,94500.58
2019-04-30T20:36:48.158Z,94496.70
2019-04-30T20:39:15.976Z,94497.11
2019-04-30T20:41:40.487Z,94502.45
2019-04-30T20:44:06.477Z,94507.25
2019-04-30T20:46:40.139Z,94497.81
2019-04-30T20:49:09.079Z,94498.64
2019-04-30T20:51:34.676Z,94506.23
2019-04-30T20:54:01.415Z,94497.41
2019-04-30T20:56:29.114Z,94500.99
2019-04-30T20:58:58.186Z,94504.20
2019-04-30T21:01:21.031Z,94502.45
2019-04-30T21:03:47.030Z,94504.08
2019-04-30T21:06:13.029Z,94502.23
2019-04-30T21:08:40.557Z,94504.48
2019-04-30T21:11:06.548Z,94500.89
2019-04-30T21:13:32.710Z,94509.92
2019-04-30T21:16:00.482Z,94515.04
2019-04-30T21:18:26.496Z,94511.67
2019-04-30T21:20:52.532Z,94503.98
2019-04-30T21:23:19.459Z,94508.21
2019-04-30T21:25:44.573Z,94509.00
2019-04-30T21:28:10.583Z,94499.15
2019-04-30T21:30:36.613Z,94498.73
2019-04-30T21:33:02.611Z,94492.70
2019-04-30T21:35:28.607Z,94494.45
2019-04-30T21:37:54.623Z,94492.19
2019-04-30T21:40:20.728Z,94490.13
2019-04-30T21:42:46.756Z,94484.69
2019-04-30T21:45:12.768Z,94486.53
2019-04-30T21:47:38.766Z,94480.40
2019-04-30T21:50:04.792Z,94486.66
2019-04-30T21:52:30.804Z,94486.25
2019-04-30T21:54:56.821Z,94483.16
2019-04-30T21:57:22.818Z,94482.75
2019-04-30T21:59:48.836Z,94482.75
2019-04-30T22:02:14.829Z,94485.02
2019-04-30T22:04:40.831Z,94482.10
2019-04-30T22:07:06.856Z,94486.06
2019-04-30T22:09:32.852Z,94488.32
2019-04-30T22:11:59.956Z,94486.58
2019-04-30T22:14:25.951Z,94489.25
2019-04-30T22:16:51.972Z,94487.62
2019-04-30T22:19:17.990Z,94485.09
2019-04-30T22:21:44.019Z,94483.63
2019-04-30T22:24:10.034Z,94479.75
2019-04-30T22:26:36.032Z,94474.41
2019-04-30T22:29:02.058Z,94476.25
2019-04-30T22:31:29.621Z,94478.09
2019-04-30T22:33:54.067Z,94484.36
2019-04-30T22:36:20.068Z,94486.23
2019-04-30T22:38:46.084Z,94487.16
2019-04-30T22:41:12.082Z,94484.48
2019-04-30T22:43:38.136Z,94485.00
2019-04-30T22:46:04.106Z,94481.13
2019-04-30T22:48:30.109Z,94473.91
2019-04-30T22:50:56.126Z,94474.86
2019-04-30T22:53:22.150Z,94474.95
2019-04-30T22:55:48.140Z,94464.41
2019-04-30T22:58:14.191Z,94468.80
2019-04-30T23:00:40.187Z,94466.53
2019-04-30T23:03:06.187Z,94471.46
2019-04-30T23:05:32.211Z,94475.59
2019-04-30T23:07:58.200Z,94477.57
2019-04-30T23:10:24.222Z,94470.35
2019-04-30T23:12:50.220Z,94459.30
2019-04-30T23:15:16.240Z,94453.64
2019-04-30T23:17:42.235Z,94448.71
2019-04-30T23:20:08.260Z,94459.39
2019-04-30T23:22:34.277Z,94457.23
2019-04-30T23:25:00.275Z,94456.85
2019-04-30T23:27:26.298Z,94455.33
2019-04-30T23:30:02.644Z,94453.08
2019-04-30T23:32:18.355Z,94449.17
2019-04-30T23:34:44.351Z,94449.17
2019-04-30T23:37:10.447Z,94451.02
2019-04-30T23:39:36.463Z,94447.01
2019-04-30T23:42:02.442Z,94438.59
2019-04-30T23:44:28.462Z,94439.13
2019-04-30T23:46:54.458Z,94442.72
2019-04-30T23:49:20.478Z,94432.04
2019-04-30T23:51:46.475Z,94433.38
2019-04-30T23:54:12.487Z,94427.22
2019-04-30T23:56:38.494Z,94429.47
2019-04-30T23:59:04.497Z,94429.88
